createdAt,value
2019-02-15T00:00:33.401Z,38.80
2019-02-15T00:03:02.386Z,38.80
2019-02-15T00:05:31.269Z,38.50
2019-02-15T00:08:00.099Z,38.40
2019-02-15T00:10:28.749Z,38.40
2019-02-15T00:12:57.363Z,37.70
2019-02-15T00:15:26.207Z,38.70
2019-02-15T00:17:56.371Z,38.80
2019-02-15T00:20:26.650Z,38.80
2019-02-15T00:22:55.193Z,39.00
2019-02-15T00:25:31.661Z,39.00
2019-02-15T00:28:03.332Z,39.10
2019-02-15T00:30:32.168Z,39.00
2019-02-15T00:33:00.899Z,38.90
2019-02-15T00:35:29.548Z,39.20
2019-02-15T00:37:58.836Z,39.20
2019-02-15T00:40:27.431Z,38.60
2019-02-15T00:42:56.052Z,39.10
2019-02-15T00:45:26.264Z,39.30
2019-02-15T00:48:03.605Z,39.10
2019-02-15T00:50:51.867Z,39.40
2019-02-15T00:53:24.909Z,39.60
2019-02-15T00:55:55.275Z,40.10
2019-02-15T00:58:25.587Z,40.30
2019-02-15T01:00:55.964Z,40.20
2019-02-15T01:03:28.798Z,39.90
2019-02-15T01:06:08.009Z,40.00
2019-02-15T01:08:54.371Z,40.10
2019-02-15T01:11:27.457Z,40.10
2019-02-15T01:13:56.011Z,40.20
2019-02-15T01:16:26.191Z,40.30
2019-02-15T01:18:54.746Z,40.40
2019-02-15T01:21:23.277Z,40.50
2019-02-15T01:23:52.583Z,40.30
2019-02-15T01:26:25.463Z,40.40
2019-02-15T01:28:58.323Z,40.60
2019-02-15T01:31:28.661Z,41.10
2019-02-15T01:34:01.712Z,40.40
2019-02-15T01:36:37.925Z,40.30
2019-02-15T01:39:25.509Z,40.10
2019-02-15T01:41:55.812Z,40.00
2019-02-15T01:44:32.266Z,40.00
2019-02-15T01:47:02.455Z,39.90
2019-02-15T01:49:31.070Z,39.80
2019-02-15T01:51:59.672Z,40.30
2019-02-15T01:54:28.343Z,40.30
2019-02-15T01:57:00.211Z,40.20
2019-02-15T01:59:28.764Z,40.10
2019-02-15T02:02:00.065Z,40.20
2019-02-15T02:04:29.374Z,40.20
2019-02-15T02:06:58.744Z,40.20
2019-02-15T02:09:27.935Z,40.40
2019-02-15T02:11:56.573Z,40.30
2019-02-15T02:14:25.244Z,40.20
2019-02-15T02:16:53.802Z,39.90
2019-02-15T02:19:22.451Z,40.00
2019-02-15T02:21:53.931Z,39.90
2019-02-15T02:24:22.741Z,40.40
2019-02-15T02:26:51.583Z,40.40
2019-02-15T02:29:20.227Z,40.50
2019-02-15T02:31:49.247Z,40.40
2019-02-15T02:34:17.815Z,40.20
2019-02-15T02:36:52.151Z,40.30
2019-02-15T02:39:20.810Z,40.30
2019-02-15T02:41:51.015Z,40.10
2019-02-15T02:44:19.665Z,40.00
2019-02-15T02:46:48.513Z,39.80
2019-02-15T02:49:17.172Z,39.70
2019-02-15T02:51:45.861Z,39.80
2019-02-15T02:54:14.447Z,39.60
2019-02-15T02:56:43.147Z,39.80
2019-02-15T02:59:11.810Z,40.00
2019-02-15T03:01:40.325Z,40.30
2019-02-15T03:04:08.943Z,40.30
2019-02-15T03:06:37.533Z,40.10
2019-02-15T03:09:09.531Z,39.80
2019-02-15T03:11:38.148Z,39.80
2019-02-15T03:14:12.004Z,39.50
2019-02-15T03:16:40.765Z,39.50
2019-02-15T03:19:10.358Z,39.50
2019-02-15T03:21:39.604Z,39.30
2019-02-15T03:24:08.194Z,39.10
2019-02-15T03:26:37.249Z,39.00
2019-02-15T03:29:05.948Z,38.90
2019-02-15T03:31:34.711Z,38.60
2019-02-15T03:34:03.394Z,38.80
2019-02-15T03:36:44.005Z,38.60
2019-02-15T03:39:14.344Z,38.50
2019-02-15T03:41:42.936Z,38.70
2019-02-15T03:44:21.392Z,38.70
2019-02-15T03:46:43.115Z,38.80
2019-02-15T03:49:11.783Z,38.80
2019-02-15T03:51:41.367Z,38.90
2019-02-15T03:54:11.174Z,38.70
2019-02-15T03:56:39.884Z,39.20
2019-02-15T03:59:08.535Z,39.20
2019-02-15T04:01:37.062Z,39.50
2019-02-15T04:04:06.842Z,39.40
2019-02-15T04:06:35.649Z,38.70
2019-02-15T04:09:05.146Z,39.10
2019-02-15T04:11:33.787Z,39.20
2019-02-15T04:14:02.385Z,39.20
2019-02-15T04:16:30.933Z,39.10
2019-02-15T04:19:02.253Z,38.90
2019-02-15T04:21:33.001Z,38.70
2019-02-15T04:24:03.285Z,39.30
2019-02-15T04:26:32.103Z,38.50
2019-02-15T04:29:00.736Z,38.60
2019-02-15T04:31:29.274Z,38.70
2019-02-15T04:33:57.890Z,38.60
2019-02-15T04:36:26.422Z,38.80
2019-02-15T04:38:58.123Z,39.00
2019-02-15T04:41:26.870Z,39.10
2019-02-15T04:43:57.155Z,39.40
2019-02-15T04:46:29.841Z,39.40
2019-02-15T04:48:59.998Z,39.50
2019-02-15T04:51:37.100Z,39.50
2019-02-15T04:54:11.260Z,39.70
2019-02-15T04:56:38.174Z,39.70
2019-02-15T04:59:06.794Z,40.40
2019-02-15T05:01:35.422Z,39.60
2019-02-15T05:04:05.074Z,39.40
2019-02-15T05:06:33.808Z,39.40
2019-02-15T05:09:02.397Z,39.50
2019-02-15T05:11:31.056Z,39.70
2019-02-15T05:13:59.844Z,39.90
2019-02-15T05:16:28.635Z,39.90
2019-02-15T05:18:57.427Z,39.80
2019-02-15T05:21:26.006Z,39.60
2019-02-15T05:23:54.750Z,39.50
2019-02-15T05:26:23.380Z,39.30
2019-02-15T05:28:52.089Z,39.50
2019-02-15T05:31:20.816Z,38.50
2019-02-15T05:33:49.466Z,38.70
2019-02-15T05:36:18.035Z,38.90
2019-02-15T05:38:46.817Z,38.80
2019-02-15T05:41:15.433Z,38.80
2019-02-15T05:43:44.132Z,38.60
2019-02-15T05:46:12.760Z,38.70
2019-02-15T05:48:43.718Z,38.50
2019-02-15T05:51:13.363Z,38.60
2019-02-15T05:53:42.106Z,39.00
2019-02-15T05:56:10.841Z,38.50
2019-02-15T05:58:39.491Z,38.40
2019-02-15T06:01:09.915Z,38.20
2019-02-15T06:03:38.887Z,38.10
2019-02-15T06:06:08.256Z,38.40
2019-02-15T06:08:37.108Z,38.70
2019-02-15T06:11:08.592Z,38.20
2019-02-15T06:13:37.621Z,38.60
2019-02-15T06:16:06.623Z,38.60
2019-02-15T06:18:36.705Z,38.40
2019-02-15T06:21:05.636Z,38.10
2019-02-15T06:23:34.449Z,38.30
2019-02-15T06:26:03.123Z,38.00
2019-02-15T06:28:32.254Z,38.00
2019-02-15T06:31:01.226Z,37.80
2019-02-15T06:33:30.235Z,37.60
2019-02-15T06:36:02.295Z,37.40
2019-02-15T06:38:34.881Z,37.30
2019-02-15T06:41:01.735Z,37.20
2019-02-15T06:43:30.745Z,37.20
2019-02-15T06:45:59.757Z,37.60
2019-02-15T06:48:28.708Z,37.10
2019-02-15T06:50:57.497Z,37.00
2019-02-15T06:53:27.514Z,36.80
2019-02-15T06:55:57.274Z,36.60
2019-02-15T06:58:26.073Z,36.40
2019-02-15T07:00:56.655Z,36.30
2019-02-15T07:03:32.624Z,36.40
2019-02-15T07:06:05.334Z,36.60
2019-02-15T07:08:34.384Z,36.60
2019-02-15T07:11:03.383Z,36.30
2019-02-15T07:13:32.679Z,36.20
2019-02-15T07:16:01.916Z,36.20
2019-02-15T07:18:31.103Z,35.90
2019-02-15T07:21:02.888Z,35.70
2019-02-15T07:23:32.690Z,36.10
2019-02-15T07:26:02.478Z,36.40
2019-02-15T07:28:31.735Z,36.80
2019-02-15T07:31:03.764Z,37.00
2019-02-15T07:33:33.057Z,37.20
2019-02-15T07:36:02.227Z,37.40
2019-02-15T07:38:31.429Z,37.30
2019-02-15T07:41:00.827Z,37.40
2019-02-15T07:43:30.250Z,37.40
2019-02-15T07:45:59.504Z,37.40
2019-02-15T07:48:28.323Z,37.00
2019-02-15T07:50:57.417Z,36.70
2019-02-15T07:53:26.400Z,36.60
2019-02-15T07:55:55.805Z,36.80
2019-02-15T07:58:24.638Z,36.80
2019-02-15T08:00:53.850Z,37.20
2019-02-15T08:03:23.024Z,37.30
2019-02-15T08:05:52.307Z,37.70
2019-02-15T08:08:21.481Z,37.80
2019-02-15T08:10:50.714Z,37.90
2019-02-15T08:13:24.101Z,38.20
2019-02-15T08:15:53.583Z,38.10
2019-02-15T08:18:22.362Z,38.10
2019-02-15T08:20:51.729Z,38.00
2019-02-15T08:23:22.466Z,37.90
2019-02-15T08:25:51.603Z,38.80
2019-02-15T08:28:20.527Z,39.00
2019-02-15T08:30:50.123Z,39.30
2019-02-15T08:33:22.577Z,39.50
2019-02-15T08:35:51.313Z,39.20
2019-02-15T08:38:23.293Z,39.30
2019-02-15T08:40:53.087Z,39.20
2019-02-15T08:43:26.389Z,38.60
2019-02-15T08:46:00.688Z,38.10
2019-02-15T08:48:27.717Z,38.00
2019-02-15T08:50:56.503Z,38.30
2019-02-15T08:53:27.597Z,38.60
2019-02-15T08:55:58.176Z,38.50
2019-02-15T08:58:27.376Z,38.60
2019-02-15T09:00:56.702Z,38.50
2019-02-15T09:03:25.697Z,38.00
2019-02-15T09:05:55.132Z,39.00
2019-02-15T09:08:23.693Z,40.40
2019-02-15T09:10:52.665Z,39.90
2019-02-15T09:13:21.713Z,40.30
2019-02-15T09:15:51.152Z,40.40
2019-02-15T09:18:22.012Z,40.70
2019-02-15T09:20:52.957Z,40.90
2019-02-15T09:23:22.334Z,41.00
2019-02-15T09:25:52.848Z,41.00
2019-02-15T09:28:36.810Z,40.50
2019-02-15T09:31:08.421Z,40.00
2019-02-15T09:33:38.922Z,39.60
2019-02-15T09:36:09.218Z,39.60
2019-02-15T09:38:38.342Z,39.20
2019-02-15T09:41:24.543Z,39.10
2019-02-15T09:43:44.089Z,38.50
2019-02-15T09:46:19.939Z,38.10
2019-02-15T09:48:44.924Z,38.50
2019-02-15T09:51:15.151Z,38.00
2019-02-15T09:53:44.030Z,38.10
2019-02-15T09:56:13.424Z,37.80
2019-02-15T09:58:44.013Z,38.00
2019-02-15T10:01:13.421Z,38.20
2019-02-15T10:03:47.056Z,38.00
2019-02-15T10:06:16.217Z,38.30
2019-02-15T10:08:45.083Z,37.90
2019-02-15T10:11:14.350Z,38.10
2019-02-15T10:13:43.865Z,38.00
2019-02-15T10:16:14.412Z,37.60
2019-02-15T10:18:43.491Z,37.60
2019-02-15T10:21:13.866Z,37.60
2019-02-15T10:23:42.878Z,37.50
2019-02-15T10:26:12.810Z,37.20
2019-02-15T10:28:42.900Z,37.00
2019-02-15T10:31:13.009Z,36.90
2019-02-15T10:33:41.538Z,36.70
2019-02-15T10:36:10.574Z,37.00
2019-02-15T10:38:39.818Z,37.10
2019-02-15T10:41:09.146Z,37.10
2019-02-15T10:43:38.385Z,37.10
2019-02-15T10:46:07.699Z,37.10
2019-02-15T10:48:36.690Z,37.10
2019-02-15T10:51:07.061Z,36.80
2019-02-15T10:53:37.440Z,36.50
2019-02-15T10:56:06.505Z,36.20
2019-02-15T10:58:38.648Z,35.90
2019-02-15T11:01:08.608Z,35.40
2019-02-15T11:03:37.980Z,35.50
2019-02-15T11:06:10.054Z,35.50
2019-02-15T11:08:39.624Z,35.50
2019-02-15T11:11:08.961Z,35.20
2019-02-15T11:13:38.457Z,35.50
2019-02-15T11:16:07.725Z,35.50
2019-02-15T11:18:37.132Z,35.20
2019-02-15T11:21:07.480Z,35.50
2019-02-15T11:23:36.940Z,35.30
2019-02-15T11:26:05.933Z,35.10
2019-02-15T11:28:34.815Z,35.10
2019-02-15T11:31:04.066Z,35.30
2019-02-15T11:33:34.013Z,34.90
2019-02-15T11:36:03.130Z,35.50
2019-02-15T11:38:33.238Z,35.30
2019-02-15T11:41:10.736Z,35.40
2019-02-15T11:43:35.565Z,35.60
2019-02-15T11:46:04.805Z,35.70
2019-02-15T11:48:34.222Z,35.30
2019-02-15T11:51:05.011Z,35.10
2019-02-15T11:53:34.123Z,34.70
2019-02-15T11:56:03.388Z,34.80
2019-02-15T11:58:32.920Z,34.80
2019-02-15T12:01:01.981Z,34.60
2019-02-15T12:03:31.209Z,34.00
2019-02-15T12:06:00.660Z,33.60
2019-02-15T12:08:32.418Z,33.20
2019-02-15T12:11:01.525Z,33.80
2019-02-15T12:13:32.383Z,33.80
2019-02-15T12:16:01.861Z,34.10
2019-02-15T12:18:31.157Z,34.00
2019-02-15T12:21:01.999Z,33.80
2019-02-15T12:23:31.420Z,33.60
2019-02-15T12:26:00.991Z,34.00
2019-02-15T12:28:31.746Z,34.00
2019-02-15T12:31:01.202Z,34.00
2019-02-15T12:33:30.762Z,34.20
2019-02-15T12:36:01.601Z,34.30
2019-02-15T12:38:30.942Z,34.20
2019-02-15T12:41:01.768Z,34.70
2019-02-15T12:43:31.107Z,34.90
2019-02-15T12:46:00.027Z,35.60
2019-02-15T12:48:30.959Z,35.70
2019-02-15T12:51:00.380Z,35.70
2019-02-15T12:53:31.122Z,35.70
2019-02-15T12:56:00.460Z,35.50
2019-02-15T12:58:29.351Z,35.60
2019-02-15T13:00:59.706Z,35.80
2019-02-15T13:03:34.162Z,35.70
2019-02-15T13:06:03.257Z,35.80
2019-02-15T13:08:34.239Z,36.40
2019-02-15T13:11:03.497Z,36.40
2019-02-15T13:13:33.775Z,36.20
2019-02-15T13:16:06.927Z,35.80
2019-02-15T13:18:36.343Z,36.50
2019-02-15T13:21:05.477Z,36.60
2019-02-15T13:23:36.222Z,37.10
2019-02-15T13:26:08.391Z,36.50
2019-02-15T13:28:37.091Z,36.40
2019-02-15T13:31:07.582Z,36.70
2019-02-15T13:33:37.152Z,37.40
2019-02-15T13:36:06.485Z,37.80
2019-02-15T13:38:35.821Z,37.80
2019-02-15T13:41:06.520Z,38.00
2019-02-15T13:43:35.773Z,38.20
2019-02-15T13:46:04.608Z,38.20
2019-02-15T13:48:33.847Z,38.10
2019-02-15T13:51:03.176Z,37.80
2019-02-15T13:53:33.977Z,37.70
2019-02-15T13:56:03.101Z,37.80
2019-02-15T13:58:32.221Z,37.60
2019-02-15T14:01:01.398Z,37.50
2019-02-15T14:03:32.703Z,37.30
2019-02-15T14:06:01.392Z,37.00
2019-02-15T14:08:34.782Z,36.60
2019-02-15T14:11:04.086Z,36.50
2019-02-15T14:13:34.445Z,36.00
2019-02-15T14:16:03.673Z,36.50
2019-02-15T14:18:32.914Z,36.10
2019-02-15T14:21:02.240Z,35.50
2019-02-15T14:23:33.044Z,35.30
2019-02-15T14:26:02.288Z,35.00
2019-02-15T14:28:31.431Z,35.50
2019-02-15T14:31:00.921Z,35.40
2019-02-15T14:33:30.458Z,35.90
2019-02-15T14:35:59.807Z,35.70
2019-02-15T14:38:30.597Z,35.50
2019-02-15T14:40:59.934Z,35.70
2019-02-15T14:43:30.280Z,36.10
2019-02-15T14:46:01.676Z,36.20
2019-02-15T14:48:30.981Z,36.10
2019-02-15T14:51:00.456Z,36.00
2019-02-15T14:53:29.534Z,36.20
2019-02-15T14:55:58.721Z,36.50
2019-02-15T14:58:27.886Z,37.20
2019-02-15T15:00:57.329Z,37.70
2019-02-15T15:03:26.601Z,38.10
2019-02-15T15:05:55.928Z,38.10
2019-02-15T15:08:24.973Z,38.30
2019-02-15T15:10:54.254Z,38.00
2019-02-15T15:13:25.157Z,38.10
2019-02-15T15:15:54.527Z,38.60
2019-02-15T15:18:23.745Z,38.90
2019-02-15T15:20:52.875Z,38.50
2019-02-15T15:23:22.006Z,38.30
2019-02-15T15:25:51.289Z,38.40
2019-02-15T15:28:20.443Z,38.10
2019-02-15T15:30:49.760Z,38.00
2019-02-15T15:33:19.024Z,37.70
2019-02-15T15:35:48.754Z,37.40
2019-02-15T15:38:17.876Z,38.00
2019-02-15T15:40:48.320Z,38.10
2019-02-15T15:43:18.660Z,38.00
2019-02-15T15:45:47.980Z,38.10
2019-02-15T15:48:22.671Z,38.20
2019-02-15T15:50:49.204Z,38.40
2019-02-15T15:53:20.778Z,38.70
2019-02-15T15:55:50.695Z,38.60
2019-02-15T15:58:19.527Z,38.60
2019-02-15T16:00:48.146Z,38.60
2019-02-15T16:03:17.845Z,38.60
2019-02-15T16:05:48.487Z,38.70
2019-02-15T16:08:17.205Z,38.90
2019-02-15T16:10:47.058Z,39.00
2019-02-15T16:13:15.949Z,38.90
2019-02-15T16:15:50.448Z,38.90
2019-02-15T16:18:19.599Z,39.00
2019-02-15T16:20:48.800Z,39.60
2019-02-15T16:23:17.765Z,38.70
2019-02-15T16:25:49.360Z,38.30
2019-02-15T16:28:18.115Z,38.10
2019-02-15T16:30:48.526Z,38.30
2019-02-15T16:33:17.575Z,38.20
2019-02-15T16:35:51.532Z,38.20
2019-02-15T16:38:21.588Z,38.60
2019-02-15T16:40:50.956Z,39.00
2019-02-15T16:43:20.636Z,39.10
2019-02-15T16:45:49.297Z,39.30
2019-02-15T16:48:19.670Z,39.50
2019-02-15T16:50:50.206Z,39.60
2019-02-15T16:53:18.981Z,39.70
2019-02-15T16:55:47.815Z,39.70
2019-02-15T16:58:16.927Z,40.00
2019-02-15T17:00:47.420Z,40.00
2019-02-15T17:03:17.744Z,40.10
2019-02-15T17:05:46.487Z,40.30
2019-02-15T17:08:16.882Z,40.40
2019-02-15T17:10:45.881Z,39.90
2019-02-15T17:13:14.511Z,40.00
2019-02-15T17:15:45.319Z,40.00
2019-02-15T17:18:14.276Z,39.90
2019-02-15T17:20:43.578Z,39.70
2019-02-15T17:23:12.875Z,40.00
2019-02-15T17:25:41.658Z,40.50
2019-02-15T17:28:10.993Z,41.20
2019-02-15T17:30:40.427Z,41.00
2019-02-15T17:33:09.425Z,40.70
2019-02-15T17:35:38.265Z,40.60
2019-02-15T17:38:07.218Z,40.30
2019-02-15T17:40:36.057Z,40.10
2019-02-15T17:43:04.968Z,40.30
2019-02-15T17:45:36.391Z,40.30
2019-02-15T17:48:07.993Z,40.50
2019-02-15T17:50:38.520Z,41.00
2019-02-15T17:53:07.284Z,41.10
2019-02-15T17:55:38.028Z,40.60
2019-02-15T17:58:06.960Z,40.50
2019-02-15T18:00:35.517Z,40.20
2019-02-15T18:03:04.036Z,40.10
2019-02-15T18:05:32.724Z,39.90
2019-02-15T18:08:01.689Z,40.00
2019-02-15T18:10:30.517Z,39.90
2019-02-15T18:12:59.535Z,40.00
2019-02-15T18:15:28.415Z,40.20
2019-02-15T18:17:57.523Z,40.10
2019-02-15T18:20:26.156Z,40.30
2019-02-15T18:22:57.847Z,40.60
2019-02-15T18:25:30.080Z,41.00
2019-02-15T18:28:00.300Z,40.90
2019-02-15T18:30:29.317Z,40.90
2019-02-15T18:32:58.368Z,40.70
2019-02-15T18:35:27.635Z,40.90
2019-02-15T18:37:59.478Z,40.90
2019-02-15T18:40:28.767Z,40.90
2019-02-15T18:42:58.439Z,40.70
2019-02-15T18:45:28.578Z,40.80
2019-02-15T18:47:58.588Z,40.80
2019-02-15T18:50:29.061Z,40.40
2019-02-15T18:52:57.869Z,40.60
2019-02-15T18:55:27.634Z,40.70
2019-02-15T18:57:56.547Z,40.40
2019-02-15T19:00:25.428Z,40.20
2019-02-15T19:02:54.224Z,39.70
2019-02-15T19:05:24.478Z,39.90
2019-02-15T19:07:56.063Z,39.70
2019-02-15T19:10:26.446Z,39.60
2019-02-15T19:12:55.249Z,39.40
2019-02-15T19:15:27.179Z,39.40
2019-02-15T19:17:55.991Z,39.30
2019-02-15T19:20:24.787Z,39.30
2019-02-15T19:22:53.390Z,39.30
2019-02-15T19:25:22.066Z,39.20
2019-02-15T19:27:50.919Z,39.40
2019-02-15T19:30:28.767Z,39.40
2019-02-15T19:32:59.544Z,39.30
2019-02-15T19:35:28.304Z,39.00
2019-02-15T19:37:57.147Z,39.00
2019-02-15T19:40:27.190Z,39.00
2019-02-15T19:50:06.374Z,38.40
2019-02-15T19:52:34.975Z,38.20
2019-02-15T19:55:06.626Z,38.10
2019-02-15T19:57:36.899Z,38.30
2019-02-15T20:00:11.208Z,38.50
2019-02-15T20:02:39.744Z,39.30
2019-02-15T20:05:08.732Z,38.50
2019-02-15T20:07:37.373Z,38.30
2019-02-15T20:10:09.505Z,38.10
2019-02-15T20:12:38.370Z,38.50
2019-02-15T20:15:12.839Z,38.80
2019-02-15T20:17:41.589Z,38.90
2019-02-15T20:20:12.598Z,39.50
2019-02-15T20:22:42.017Z,39.70
2019-02-15T20:25:12.109Z,39.70
2019-02-15T20:27:41.034Z,40.00
2019-02-15T20:30:15.763Z,39.90
2019-02-15T20:32:45.418Z,40.30
2019-02-15T20:35:18.044Z,40.00
2019-02-15T20:37:49.088Z,40.00
2019-02-15T20:40:18.059Z,39.80
2019-02-15T20:42:46.595Z,39.90
2019-02-15T20:45:23.364Z,40.10
2019-02-15T20:47:52.269Z,40.30
2019-02-15T20:50:21.515Z,40.10
2019-02-15T20:52:51.638Z,39.80
2019-02-15T20:55:20.623Z,40.00
2019-02-15T20:57:49.197Z,40.00
2019-02-15T21:00:23.823Z,40.20
2019-02-15T21:02:53.416Z,40.20
2019-02-15T21:05:23.462Z,40.20
2019-02-15T21:07:52.107Z,39.90
2019-02-15T21:10:22.068Z,39.40
2019-02-15T21:12:50.808Z,39.00
2019-02-15T21:15:20.234Z,38.70
2019-02-15T21:17:49.516Z,38.50
2019-02-15T21:20:18.781Z,38.40
2019-02-15T21:22:49.165Z,38.10
2019-02-15T21:25:18.189Z,38.60
2019-02-15T21:27:49.335Z,38.10
2019-02-15T21:30:19.072Z,38.30
2019-02-15T21:32:50.198Z,38.40
2019-02-15T21:35:18.731Z,38.40
2019-02-15T21:37:49.024Z,38.80
2019-02-15T21:40:20.494Z,38.90
2019-02-15T21:42:49.161Z,39.00
2019-02-15T21:45:17.624Z,39.30
2019-02-15T21:47:46.162Z,39.70
2019-02-15T21:50:17.406Z,39.50
2019-02-15T21:52:45.456Z,39.70
2019-02-15T21:55:16.865Z,39.50
2019-02-15T21:57:46.102Z,39.50
2019-02-15T22:00:24.113Z,39.40
2019-02-15T22:02:55.343Z,39.90
2019-02-15T22:05:24.288Z,40.10
2019-02-15T22:07:53.014Z,40.50
2019-02-15T22:10:22.024Z,40.90
2019-02-15T22:12:51.363Z,41.20
2019-02-15T22:15:20.743Z,42.00
2019-02-15T22:17:51.167Z,41.20
2019-02-15T22:20:26.740Z,41.50
2019-02-15T22:22:53.378Z,41.60
2019-02-15T22:25:22.498Z,41.80
2019-02-15T22:27:53.264Z,42.10
2019-02-15T22:30:22.141Z,42.20
2019-02-15T22:32:50.873Z,42.30
2019-02-15T22:35:19.646Z,42.00
2019-02-15T22:37:51.269Z,41.50
2019-02-15T22:40:33.794Z,41.10
2019-02-15T22:43:25.055Z,40.40
2019-02-15T22:45:55.277Z,40.40
2019-02-15T22:48:25.348Z,40.80
2019-02-15T22:50:55.535Z,41.10
2019-02-15T22:53:24.262Z,41.40
2019-02-15T22:55:55.882Z,40.60
2019-02-15T22:58:27.051Z,40.70
2019-02-15T23:01:00.744Z,40.90
2019-02-15T23:03:29.688Z,40.70
2019-02-15T23:05:58.703Z,40.50
2019-02-15T23:08:27.763Z,40.40
2019-02-15T23:10:57.834Z,40.10
2019-02-15T23:13:28.277Z,40.40
2019-02-15T23:15:58.143Z,40.60
2019-02-15T23:18:31.408Z,41.00
2019-02-15T23:21:00.174Z,40.80
2019-02-15T23:23:30.718Z,40.90
2019-02-15T23:25:59.671Z,40.70
2019-02-15T23:28:28.650Z,40.40
2019-02-15T23:31:00.965Z,40.10
2019-02-15T23:33:32.098Z,39.80
2019-02-15T23:36:00.761Z,39.70
2019-02-15T23:38:29.430Z,39.60
2019-02-15T23:41:00.029Z,39.80
2019-02-15T23:43:30.386Z,39.80
2019-02-15T23:46:02.165Z,39.70
2019-02-15T23:48:30.794Z,39.90
2019-02-15T23:50:59.647Z,39.60
2019-02-15T23:53:28.281Z,39.50
2019-02-15T23:55:56.957Z,39.50
2019-02-15T23:58:25.907Z,39.70
